Time;durP1;ratioP1;P1;durP2;ratioP2;P2;SDS_P1;SDS_P2;PMS_P1;PMS_P2;Temp;Humidity;BMP_temperature;BMP_pressure;BME280_temperature;BME280_humidity;BME280_pressure;Samples;Min_cycle;Max_cycle;Signal;HPM_P1;HPM_P2
2022/12/09 00:02:41;;;;;;;16.93;12.47;;;;;;;7.43;54.93;99403.12;2164585;89;25703;-84
2022/12/09 00:06:13;;;;;;;24.63;13.08;;;;;;;7.41;54.92;99406.09;2164567;91;25699;-84
2022/12/09 00:09:47;;;;;;;19.40;13.00;;;;;;;7.39;54.93;99407.80;2152708;91;27085;-84
2022/12/09 00:13:19;;;;;;;15.13;11.53;;;;;;;7.38;54.93;99399.97;2142606;91;25773;-83
2022/12/09 00:16:48;;;;;;;15.50;11.78;;;;;;;7.37;54.92;99402.98;2163290;91;25815;-84
2022/12/09 00:20:18;;;;;;;17.80;13.18;;;;;;;7.35;54.92;99403.36;2166887;90;25854;-84
2022/12/09 00:23:46;;;;;;;16.82;12.30;;;;;;;7.33;54.88;99400.75;2169919;89;25715;-84
2022/12/09 00:27:12;;;;;;;;;;;;;;;7.31;54.91;99395.08;2195693;88;25795;-84
2022/12/09 00:30:55;;;;;;;16.10;11.57;;;;;;;7.29;54.92;99401.54;2192948;88;25811;-84
2022/12/09 00:34:27;;;;;;;17.45;12.70;;;;;;;7.27;54.94;99394.56;2257929;84;26732;-84
2022/12/09 00:37:55;;;;;;;14.83;11.97;;;;;;;7.25;54.98;99402.30;2305252;84;25582;-84
2022/12/09 00:41:28;;;;;;;21.55;12.30;;;;;;;7.25;54.99;99406.61;2304185;85;25818;-83
2022/12/09 00:45:09;;;;;;;18.75;12.28;;;;;;;7.25;55.00;99405.31;2309528;85;25722;-83
2022/12/09 00:48:33;;;;;;;17.92;12.73;;;;;;;7.23;55.00;99410.48;2281616;85;25788;-83
2022/12/09 00:52:04;;;;;;;15.88;11.97;;;;;;;7.22;55.02;99410.03;2259007;85;25749;-83
2022/12/09 00:55:46;;;;;;;18.32;12.50;;;;;;;7.20;54.97;99409.11;2266764;85;25733;-84
2022/12/09 00:59:22;;;;;;;18.85;12.50;;;;;;;7.19;55.00;99406.08;2190497;88;25954;-84
2022/12/09 01:02:54;;;;;;;15.93;12.10;;;;;;;7.19;55.00;99405.17;2204309;88;25761;-84
2022/12/09 01:06:40;;;;;;;;;;;;;;;;;;;;;
2022/12/09 01:10:16;;;;;;;16.32;11.93;;;;;;;7.15;55.01;99399.48;2179562;89;25968;-84
2022/12/09 01:13:56;;;;;;;;;;;;;;;;;;;;;
2022/12/09 01:17:34;;;;;;;15.65;11.68;;;;;;;7.13;55.06;99405.07;2180543;86;25769;-85
2022/12/09 01:21:23;;;;;;;18.90;13.62;;;;;;;7.11;55.06;99398.54;2183543;87;25790;-84
2022/12/09 01:24:51;;;;;;;20.77;12.90;;;;;;;7.10;55.04;99403.28;2170515;88;25862;-84
2022/12/09 01:28:33;;;;;;;;;;;;;;;;;;;;;
2022/12/09 01:32:00;;;;;;;18.10;12.50;;;;;;;7.06;55.05;99386.80;2033485;95;25923;-84
2022/12/09 01:35:35;;;;;;;15.72;12.55;;;;;;;7.06;55.08;99397.58;2082225;93;25892;-83
2022/12/09 01:39:20;;;;;;;19.42;12.73;;;;;;;7.05;55.06;99391.53;2082585;93;27043;-83
2022/12/09 01:42:49;;;;;;;19.90;12.82;;;;;;;7.03;55.07;99387.14;2080350;93;25970;-83
2022/12/09 01:46:16;;;;;;;18.57;12.30;;;;;;;7.01;55.06;99382.34;2049851;94;26090;-84
2022/12/09 01:49:59;;;;;;;18.40;13.40;;;;;;;6.99;55.09;99384.91;1961185;98;25766;-85
2022/12/09 01:53:41;;;;;;;14.90;11.68;;;;;;;6.99;55.09;99387.50;1959557;98;25925;-83
2022/12/09 01:57:15;;;;;;;16.52;12.20;;;;;;;6.99;55.11;99390.09;1902777;100;25741;-83
2022/12/09 02:00:53;;;;;;;23.15;13.45;;;;;;;6.96;55.11;99388.73;1880940;102;25960;-83
2022/12/09 02:04:34;;;;;;;17.55;12.45;;;;;;;6.96;55.14;99391.74;1882338;101;25918;-84
2022/12/09 02:08:09;;;;;;;18.37;12.43;;;;;;;6.95;55.15;99389.97;1905235;99;25880;-84
2022/12/09 02:12:10;;;;;;;19.17;12.33;;;;;;;6.93;55.15;99380.89;1961146;96;25803;-83
2022/12/09 02:15:59;;;;;;;21.12;11.85;;;;;;;6.93;55.19;99386.06;1961509;98;25953;-84
2022/12/09 02:20:12;;;;;;;18.57;11.33;;;;;;;6.92;55.20;99383.42;1944558;99;25977;-85
2022/12/09 02:24:07;;;;;;;19.20;13.48;;;;;;;6.91;55.17;99377.80;1776604;111;26043;-84
2022/12/09 02:27:59;;;;;;;19.87;13.58;;;;;;;6.89;55.17;99375.19;1798744;106;25664;-83
2022/12/09 02:32:25;;;;;;;17.65;13.32;;;;;;;6.89;55.19;99371.30;1822694;105;25793;-83
2022/12/09 02:35:58;;;;;;;18.23;12.75;;;;;;;6.87;55.22;99376.86;1836934;105;25609;-83
2022/12/09 02:43:22;;;;;;;17.82;12.05;;;;;;;6.84;55.23;99371.17;1848975;104;25837;-82
2022/12/09 02:46:58;;;;;;;20.02;12.95;;;;;;;6.84;55.23;99375.06;1885486;104;25715;-85
2022/12/09 02:50:30;;;;;;;16.85;12.68;;;;;;;6.83;55.25;99381.09;1890049;104;25372;-82
2022/12/09 02:53:58;;;;;;;20.17;13.00;;;;;;;6.83;55.25;99378.93;1952637;95;25967;-83
2022/12/09 02:57:36;;;;;;;17.32;12.78;;;;;;;6.82;55.27;99381.95;2030380;95;25776;-82
2022/12/09 03:01:25;;;;;;;18.57;13.05;;;;;;;6.82;55.29;99392.30;1977746;97;25743;-82
2022/12/09 03:05:16;;;;;;;18.70;12.82;;;;;;;6.81;55.25;99382.77;1973614;98;25783;-81
2022/12/09 03:09:12;;;;;;;19.15;12.25;;;;;;;6.81;55.25;99384.48;1893933;102;25873;-82
2022/12/09 03:12:45;;;;;;;18.55;12.60;;;;;;;6.80;55.24;99374.55;1874207;103;26045;-84
2022/12/09 03:16:40;;;;;;;16.45;12.20;;;;;;;6.79;55.24;99370.22;1879642;103;25870;-83
2022/12/09 03:20:32;;;;;;;18.73;13.15;;;;;;;6.78;55.27;99371.07;1946931;100;25878;-84
2022/12/09 03:24:01;;;;;;;18.42;12.82;;;;;;;6.77;55.27;99368.42;1950010;99;25912;-83
2022/12/09 03:28:00;;;;;;;17.80;12.88;;;;;;;6.77;55.25;99365.41;1966957;98;25891;-83
2022/12/09 03:31:28;;;;;;;17.45;12.70;;;;;;;6.77;55.29;99366.70;1929286;101;25820;-82
2022/12/09 03:35:01;;;;;;;18.70;13.30;;;;;;;6.78;55.27;99367.58;1924906;102;25891;-83
2022/12/09 03:38:30;;;;;;;15.80;12.73;;;;;;;6.78;55.28;99362.00;1965253;96;25689;-84
2022/12/09 03:42:19;;;;;;;16.45;12.50;;;;;;;6.77;55.27;99362.82;2008015;96;25348;-83
2022/12/09 03:45:54;;;;;;;17.37;12.53;;;;;;;6.77;55.28;99360.23;2040180;92;25877;-84
2022/12/09 03:49:34;;;;;;;19.02;12.53;;;;;;;6.77;55.28;99361.53;2079481;90;25777;-83
2022/12/09 03:53:08;;;;;;;17.30;12.07;;;;;;;6.78;55.28;99371.46;2072803;93;25636;-83
2022/12/09 03:56:38;;;;;;;14.03;12.07;;;;;;;6.78;55.28;99370.16;2104264;90;25846;-84
2022/12/09 04:00:17;;;;;;;21.70;14.07;;;;;;;6.77;55.26;99361.95;2172354;90;25904;-83
2022/12/09 04:04:17;;;;;;;;;;;;;;;;;;;;;
2022/12/09 04:07:45;;;;;;;19.62;13.03;;;;;;;6.78;55.27;99364.98;2125141;90;25721;-83
2022/12/09 04:11:35;;;;;;;;;;;;;;;;;;;;;
2022/12/09 04:15:05;;;;;;;19.55;13.48;;;;;;;6.78;55.26;99362.00;2134243;91;26466;-82
2022/12/09 04:18:38;;;;;;;18.87;13.88;;;;;;;6.79;55.25;99355.10;2137758;91;25933;-83
2022/12/09 04:22:22;;;;;;;15.28;12.82;;;;;;;6.80;55.26;99351.66;2140734;92;25796;-82
2022/12/09 04:29:49;;;;;;;17.25;12.93;;;;;;;6.83;55.24;99359.50;2215296;87;26057;-83
2022/12/09 04:33:19;;;;;;;16.57;12.25;;;;;;;6.83;55.24;99363.39;2215307;88;26098;-83
2022/12/09 04:36:53;;;;;;;15.23;12.45;;;;;;;6.81;55.22;99362.47;2153049;91;25717;-83
2022/12/09 04:40:21;;;;;;;20.60;12.63;;;;;;;6.82;55.23;99362.52;2152724;91;25719;-83
2022/12/09 04:44:05;;;;;;;18.02;12.47;;;;;;;6.82;55.21;99356.05;2152859;91;26074;-83
2022/12/09 04:47:40;;;;;;;17.35;13.48;;;;;;;6.81;55.20;99355.56;2154482;90;25529;-83
2022/12/09 04:51:19;;;;;;;15.45;11.83;;;;;;;6.83;55.22;99365.98;2128463;91;26243;-83
2022/12/09 04:54:52;;;;;;;16.12;12.53;;;;;;;6.81;55.18;99355.56;2154042;90;26336;-83
2022/12/09 04:58:17;;;;;;;17.55;13.48;;;;;;;6.81;55.18;99357.28;2123197;91;25792;-83
2022/12/09 05:02:02;;;;;;;15.93;13.15;;;;;;;6.79;55.21;99357.69;2037677;95;25822;-83
2022/12/09 05:05:31;;;;;;;17.73;12.05;;;;;;;6.77;55.20;99357.64;2003208;97;25980;-84
2022/12/09 05:09:21;;;;;;;16.67;13.10;;;;;;;6.77;55.19;99364.55;2001934;96;26057;-84
2022/12/09 05:12:55;;;;;;;16.45;13.60;;;;;;;6.75;55.20;99363.62;1985018;96;25720;-83
2022/12/09 05:16:48;;;;;;;18.25;13.38;;;;;;;6.73;55.19;99362.30;1926369;99;26837;-84
2022/12/09 05:20:28;;;;;;;16.77;12.58;;;;;;;6.71;55.18;99361.38;1926850;99;25821;-83
2022/12/09 05:23:50;;;;;;;15.85;12.70;;;;;;;6.71;55.17;99364.40;1926880;100;25942;-83
2022/12/09 05:27:20;;;;;;;18.23;13.35;;;;;;;6.68;55.17;99361.31;1924028;100;25667;-83
2022/12/09 05:30:49;;;;;;;18.75;12.78;;;;;;;6.67;55.19;99362.58;1904197;101;26884;-82
2022/12/09 05:34:30;;;;;;;18.15;13.05;;;;;;;6.65;55.18;99359.97;1951012;98;25299;-83
2022/12/09 05:41:47;;;;;;;19.87;13.10;;;;;;;6.63;55.19;99365.09;1937752;98;25780;-83
2022/12/09 05:45:32;;;;;;;21.37;13.10;;;;;;;6.62;55.19;99356.02;1936712;98;25821;-83
2022/12/09 05:49:13;;;;;;;;;;;;;;;;;;;;;
2022/12/09 05:52:41;;;;;;;19.50;12.80;;;;;;;6.60;55.19;99366.32;1924340;101;25917;-82
2022/12/09 05:56:34;;;;;;;17.35;13.98;;;;;;;6.59;55.19;99361.13;1922133;100;26321;-82
2022/12/09 06:00:02;;;;;;;20.72;13.43;;;;;;;6.58;55.20;99361.55;1877896;102;26932;-83
2022/12/09 06:03:54;;;;;;;;;;;;;;;;;;;;;
2022/12/09 06:07:25;;;;;;;18.02;13.03;;;;;;;6.57;55.19;99367.97;1891923;101;25808;-85
2022/12/09 06:11:26;;;;;;;21.70;14.13;;;;;;;6.57;55.20;99370.13;1938311;100;25844;-84
2022/12/09 06:15:07;;;;;;;22.50;15.05;;;;;;;6.59;55.22;99376.66;1941384;100;25940;-83
2022/12/09 06:18:44;;;;;;;18.75;13.58;;;;;;;6.60;55.23;99371.92;1975815;98;26023;-84
2022/12/09 06:22:42;;;;;;;20.08;13.48;;;;;;;6.59;55.24;99376.23;1978565;99;25737;-83
2022/12/09 06:26:33;;;;;;;23.45;14.45;;;;;;;6.60;55.21;99375.81;1976947;98;25520;-82
2022/12/09 06:30:01;;;;;;;21.68;14.13;;;;;;;6.63;55.18;99374.59;1981317;98;25995;-85
2022/12/09 06:33:38;;;;;;;22.50;15.00;;;;;;;6.64;55.19;99376.33;1994558;98;25746;-85
2022/12/09 06:36:59;;;;;;;21.57;13.70;;;;;;;6.65;55.19;99381.08;2028644;92;25840;-83
2022/12/09 06:40:42;;;;;;;20.37;13.90;;;;;;;6.67;55.18;99376.83;2143432;89;25991;-82
2022/12/09 06:44:16;;;;;;;19.05;13.45;;;;;;;6.69;55.16;99383.80;2091068;91;25832;-82
2022/12/09 06:47:55;;;;;;;20.12;13.78;;;;;;;6.70;55.14;99380.36;2094509;89;25836;-83
2022/12/09 06:51:29;;;;;;;23.45;15.20;;;;;;;6.73;55.12;99383.02;2179116;87;26554;-83
2022/12/09 06:55:16;;;;;;;20.15;14.18;;;;;;;6.75;55.11;99384.34;2179710;88;25652;-81
2022/12/09 06:58:50;;;;;;;21.50;13.68;;;;;;;6.76;55.10;99379.21;2170533;88;25779;-85
2022/12/09 07:02:31;;;;;;;20.25;13.95;;;;;;;6.78;55.06;99385.70;2190968;87;25787;-82
2022/12/09 07:06:11;;;;;;;18.07;13.95;;;;;;;6.82;55.03;99385.83;2172714;87;25673;-80
2022/12/09 07:09:35;;;;;;;21.65;14.07;;;;;;;6.87;54.98;99383.33;2154866;88;25819;-82
2022/12/09 07:13:16;;;;;;;22.73;13.93;;;;;;;6.91;54.93;99379.09;2189254;88;25731;-83
2022/12/09 07:16:44;;;;;;;22.20;14.20;;;;;;;6.95;54.89;99377.92;2180289;88;25727;-81
2022/12/09 07:20:21;;;;;;;20.20;14.78;;;;;;;7.02;54.83;99382.78;2191576;87;25917;-81
2022/12/09 07:23:58;;;;;;;20.80;13.60;;;;;;;7.07;54.76;99383.34;2182749;87;25748;-83
2022/12/09 07:27:39;;;;;;;19.25;13.68;;;;;;;7.14;54.72;99368.80;2187791;87;25821;-83
2022/12/09 07:31:05;;;;;;;18.73;14.58;;;;;;;7.31;54.77;99362.24;2164715;88;25782;-85
2022/12/09 07:34:45;;;;;;;;;;;;;;;;;;;;;
2022/12/09 07:39:15;;;;;;;19.40;14.03;;;;;;;10.06;53.02;99358.55;2093148;92;25743;-89
2022/12/09 07:42:46;;;;;;;;;;;;;;;;;;;;;
2022/12/09 07:46:29;;;;;;;;;;;;;;;;;;;;;
2022/12/09 07:50:03;;;;;;;17.90;13.88;;;;;;;12.67;49.21;99361.37;2059824;93;25897;-91
2022/12/09 07:53:42;;;;;;;20.55;15.78;;;;;;;13.13;48.34;99369.58;2048492;95;25785;-89
2022/12/09 07:57:32;;;;;;;18.65;15.25;;;;;;;13.52;47.70;99376.87;2021678;95;25925;-85
2022/12/09 08:01:26;;;;;;;18.67;15.80;;;;;;;14.06;47.14;99382.69;2050872;94;25735;-90
2022/12/09 08:05:16;;;;;;;;;;;;;;;;;;;;;
2022/12/09 08:09:08;;;;;;;20.00;14.73;;;;;;;15.57;45.20;99379.94;1970936;98;25904;-94
2022/12/09 08:12:43;;;;;;;16.70;14.03;;;;;;;15.52;44.07;99388.34;1917403;100;25854;-86
2022/12/09 08:16:26;;;;;;;21.50;15.45;;;;;;;14.70;43.96;99379.58;1918859;101;25793;-89
2022/12/09 08:20:10;;;;;;;14.07;11.22;;;;;;;14.05;44.19;99383.13;1846095;104;25811;-90
2022/12/09 08:23:44;;;;;;;16.42;12.80;;;;;;;13.60;46.03;99386.86;1810434;106;25491;-87
2022/12/09 08:27:24;;;;;;;;;;;;;;;;;;;;;
2022/12/09 08:31:04;;;;;;;18.23;13.90;;;;;;;12.85;47.47;99399.70;1880524;96;25804;-89
2022/12/09 08:34:45;;;;;;;19.45;14.98;;;;;;;12.47;47.87;99405.83;1879865;103;25875;-91
2022/12/09 08:38:21;;;;;;;23.87;15.20;;;;;;;12.09;48.24;99397.96;1896924;101;26099;-88
2022/12/09 08:49:43;;;;;;;;;;;;;;;;;;;;;
2022/12/09 08:53:14;;;;;;;23.95;13.95;;;;;;;10.98;49.47;99406.19;1883704;103;25945;-83
2022/12/09 08:56:56;;;;;;;23.60;15.53;;;;;;;10.78;49.74;99403.01;1870377;104;26012;-86
2022/12/09 09:00:21;;;;;;;21.00;15.00;;;;;;;10.63;49.96;99398.97;1850015;105;25858;-85
2022/12/09 09:03:47;;;;;;;25.43;16.65;;;;;;;10.52;50.14;99401.50;1855998;104;25931;-86
2022/12/09 09:07:14;;;;;;;21.00;15.23;;;;;;;10.44;50.32;99406.22;1879906;104;25896;-86
2022/12/09 09:10:55;;;;;;;20.52;15.40;;;;;;;10.36;50.34;99400.52;1860045;104;26446;-86
2022/12/09 09:14:36;;;;;;;43.28;16.20;;;;;;;10.28;50.64;99396.95;1879402;103;25464;-88
2022/12/09 09:18:25;;;;;;;19.85;15.68;;;;;;;10.09;50.75;99366.35;1895373;102;25877;-81
2022/12/09 09:22:00;;;;;;;22.95;16.35;;;;;;;10.16;50.87;99389.89;1921526;100;26099;-83
2022/12/09 09:25:51;;;;;;;23.32;17.27;;;;;;;10.12;50.96;99389.42;1931923;99;26552;-82
2022/12/09 09:29:33;;;;;;;25.23;16.55;;;;;;;10.01;51.07;99368.02;1986351;96;26082;-82
2022/12/09 09:33:06;;;;;;;21.15;15.72;;;;;;;10.03;51.14;99386.72;1975024;97;26502;-84
2022/12/09 09:36:23;;;;;;;22.98;17.77;;;;;;;9.98;51.25;99390.99;1995754;92;25870;-83
2022/12/09 09:39:44;;;;;;;25.68;17.67;;;;;;;9.92;51.32;99389.63;2021092;95;26409;-82
2022/12/09 09:43:20;;;;;;;22.85;16.07;;;;;;;9.86;51.42;99390.45;2088663;91;31009;-82
2022/12/09 09:46:55;;;;;;;25.82;17.95;;;;;;;9.81;51.47;99386.05;2287731;82;25757;-87
2022/12/09 09:51:06;;;;;;;22.90;16.70;;;;;;;9.75;51.56;99392.05;2302226;84;25783;-91
2022/12/09 09:54:34;;;;;;;25.10;17.70;;;;;;;9.72;51.64;99382.94;2240140;86;26456;-84
2022/12/09 09:58:08;;;;;;;25.72;17.85;;;;;;;9.67;51.72;99392.41;2238124;85;25809;-83
2022/12/09 10:01:45;;;;;;;27.37;17.25;;;;;;;9.64;51.77;99385.42;2181809;88;25770;-88
2022/12/09 10:05:13;;;;;;;23.95;17.50;;;;;;;9.64;51.83;99383.26;2235060;86;25972;-84
2022/12/09 10:09:01;;;;;;;27.67;18.37;;;;;;;9.63;51.88;99381.09;2230024;86;25775;-77
2022/12/09 10:17:40;;;;;;;27.00;18.07;;;;;;;9.60;51.93;99387.56;2128064;91;25946;-90
2022/12/09 10:21:17;;;;;;;24.72;18.25;;;;;;;9.61;51.98;99383.22;2111904;90;26140;-82
2022/12/09 10:25:08;;;;;;;29.12;18.55;;;;;;;9.60;51.99;99377.58;2122307;91;25766;-91
2022/12/09 10:33:01;;;;;;;34.57;20.30;;;;;;;9.68;52.04;99380.70;2134421;90;26180;-86
2022/12/09 10:40:51;;;;;;;28.57;18.73;;;;;;;9.85;52.02;99380.01;2068021;93;25816;-80
2022/12/09 10:48:15;;;;;;;27.62;18.00;;;;;;;10.10;51.90;99381.14;2108522;92;25786;-90
2022/12/09 10:51:39;;;;;;;25.95;17.75;;;;;;;10.23;51.82;99386.05;2117622;92;26084;-78
2022/12/09 10:55:15;;;;;;;27.82;18.02;;;;;;;10.33;51.79;99387.90;2117896;93;26236;-86
2022/12/09 10:58:51;;;;;;;23.12;17.65;;;;;;;10.44;51.72;99379.73;2063976;92;25938;-84
2022/12/09 11:02:27;;;;;;;27.85;18.55;;;;;;;10.67;51.81;99375.14;1971941;99;25775;-81
2022/12/09 11:06:04;;;;;;;30.52;19.87;;;;;;;10.67;51.81;99375.14;1997449;97;25850;-83
2022/12/09 11:09:38;;;;;;;28.95;18.62;;;;;;;10.87;51.30;99374.84;2083462;93;25879;-85
2022/12/09 11:13:09;;;;;;;139.20;47.75;;;;;;;10.87;51.30;99374.84;2074268;94;25824;-83
2022/12/09 11:16:44;;;;;;;101.95;38.90;;;;;;;11.10;57.02;99364.50;2049893;93;26028;-83
2022/12/09 11:20:40;;;;;;;102.60;39.65;;;;;;;11.77;59.32;99363.45;2189517;88;25750;-86
2022/12/09 11:24:38;;;;;;;;;;;;;;;;;;;;;
2022/12/09 11:28:30;;;;;;;93.05;34.55;;;;;;;13.03;60.80;99361.29;2188866;89;25332;-83
2022/12/09 11:32:07;;;;;;;82.97;36.83;;;;;;;13.43;60.97;99356.82;2191094;88;25715;-82
2022/12/09 11:36:03;;;;;;;84.13;32.58;;;;;;;13.90;62.73;99371.41;2169351;89;25749;-79
2022/12/09 11:39:38;;;;;;;40.92;25.62;;;;;;;14.32;63.40;99366.78;2118811;92;25697;-84
2022/12/09 11:43:13;;;;;;;37.67;25.17;;;;;;;14.02;59.11;99372.66;2075949;91;25780;-84
2022/12/09 11:46:48;;;;;;;34.70;24.18;;;;;;;13.27;58.42;99366.95;2202438;88;25909;-86
2022/12/09 11:50:41;;;;;;;39.92;24.47;;;;;;;12.85;57.42;99352.62;2185967;88;25794;-89
2022/12/09 11:54:34;;;;;;;;;;;;;;;12.45;56.57;99358.33;2187408;88;26072;-87
2022/12/09 11:58:18;;;;;;;33.35;24.30;;;;;;;12.62;56.46;99360.94;2169710;89;26434;-87
2022/12/09 12:02:08;;;;;;;36.23;22.30;;;;;;;12.94;56.51;99351.30;2192101;87;25951;-88
2022/12/09 12:05:49;;;;;;;35.30;21.97;;;;;;;13.32;56.07;99348.16;2127824;90;25917;-90
2022/12/09 12:09:52;;;;;;;31.75;20.10;;;;;;;13.67;55.49;99348.87;2073710;92;26073;-85
2022/12/09 12:14:00;;;;;;;30.23;22.17;;;;;;;14.09;55.67;99352.08;2061458;94;25931;-87
2022/12/09 12:17:51;;;;;;;31.37;20.27;;;;;;;14.50;53.70;99348.28;2140798;89;26102;-87
2022/12/09 12:21:46;;;;;;;29.20;20.12;;;;;;;14.48;52.31;99343.48;2175817;89;25765;-87
2022/12/09 12:25:30;;;;;;;33.38;22.58;;;;;;;14.36;51.08;99346.20;2108154;91;26169;-86
2022/12/09 12:29:04;;;;;;;32.60;21.50;;;;;;;14.12;50.40;99348.13;2108097;92;25894;-87
2022/12/09 12:33:24;;;;;;;28.87;20.68;;;;;;;14.02;50.05;99351.70;2111719;90;26544;-87
2022/12/09 12:37:23;;;;;;;29.30;21.23;;;;;;;13.78;49.41;99348.80;2102700;91;25297;-86
2022/12/09 12:41:20;;;;;;;30.43;21.90;;;;;;;13.43;49.42;99347.66;2117403;91;32586;-86
2022/12/09 12:49:31;;;;;;;32.95;24.10;;;;;;;12.79;49.03;99339.98;2110757;92;25798;-88
2022/12/09 12:52:59;;;;;;;33.18;22.60;;;;;;;12.38;48.92;99344.39;2106846;92;25677;-87
2022/12/09 12:56:59;;;;;;;33.60;22.48;;;;;;;12.00;49.13;99350.92;2111036;92;26407;-87
2022/12/09 13:04:28;;;;;;;26.75;20.30;;;;;;;11.52;49.39;99345.56;2118917;91;25406;-86
2022/12/09 13:08:06;;;;;;;31.95;20.00;;;;;;;11.32;49.60;99340.27;2121769;90;26072;-84
2022/12/09 13:12:11;;;;;;;27.52;19.60;;;;;;;11.15;49.79;99347.59;2098145;92;25782;-87
2022/12/09 13:15:43;;;;;;;32.08;22.20;;;;;;;10.96;49.88;99352.70;2029917;95;25557;-86
2022/12/09 13:19:42;;;;;;;26.57;20.43;;;;;;;10.79;50.01;99352.60;2060523;93;25782;-87
2022/12/09 13:23:40;;;;;;;31.07;21.60;;;;;;;10.68;50.11;99349.50;2031791;94;25866;-87
2022/12/09 13:27:24;;;;;;;29.75;20.50;;;;;;;10.56;50.23;99356.39;2010446;96;26985;-87
2022/12/09 13:31:05;;;;;;;30.55;20.30;;;;;;;10.32;50.28;99346.63;2009175;94;25835;-88
2022/12/09 13:34:53;;;;;;;29.07;20.23;;;;;;;10.15;50.41;99346.45;2051512;93;25789;-87
2022/12/09 13:38:46;;;;;;;26.82;18.85;;;;;;;10.07;50.53;99342.92;2038658;94;25847;-88
2022/12/09 13:42:55;;;;;;;33.92;21.93;;;;;;;10.05;50.66;99347.66;2004710;95;25916;-90
2022/12/09 13:46:50;;;;;;;39.58;22.60;;;;;;;9.96;50.60;99347.60;1971981;97;26552;-90
2022/12/09 13:54:56;;;;;;;36.33;22.95;;;;;;;9.40;50.10;99361.30;1882319;102;25800;-94
2022/12/09 13:59:26;;;;;;;42.73;23.65;;;;;;;9.14;50.34;99369.20;1866101;102;25904;-92
2022/12/09 14:03:50;;;;;;;;;;;;;;;;;;;;;
2022/12/09 14:07:46;;;;;;;;;;;;;;;;;;;;;
2022/12/09 14:16:13;;;;;;;;;;;;;;;;;;;;;
2022/12/09 14:20:30;;;;;;;46.55;27.00;;;;;;;7.94;51.71;99373.83;1816124;105;25865;-92
2022/12/09 14:24:16;;;;;;;45.90;28.42;;;;;;;7.75;52.06;99376.50;1809135;106;25881;-91
2022/12/09 14:28:19;;;;;;;;;;;;;;;;;;;;;
2022/12/09 14:32:05;;;;;;;48.58;27.00;;;;;;;7.44;52.62;99377.63;1858446;104;25880;-83
2022/12/09 14:35:46;;;;;;;42.03;26.15;;;;;;;7.49;53.44;99372.52;1826266;104;25883;-85
2022/12/09 14:39:32;;;;;;;45.98;26.80;;;;;;;7.79;53.57;99373.53;1824534;106;25945;-85
2022/12/09 14:43:40;;;;;;;41.33;25.65;;;;;;;8.00;53.55;99375.67;1828653;106;25796;-85
2022/12/09 14:47:41;;;;;;;;;;;;;;;8.17;53.50;99378.56;1877486;98;26038;-88
2022/12/09 14:51:28;;;;;;;38.50;25.23;;;;;;;8.28;53.43;99357.53;1943888;98;25825;-88
2022/12/09 14:55:26;;;;;;;38.23;24.12;;;;;;;8.34;53.39;99358.06;1973271;97;25708;-78
2022/12/09 14:59:14;;;;;;;41.92;24.70;;;;;;;8.40;53.37;99356.88;1972436;98;26600;-82
2022/12/09 15:02:54;;;;;;;37.55;23.45;;;;;;;8.42;53.35;99353.46;1952659;100;25792;-79
2022/12/09 15:06:28;;;;;;;44.45;25.23;;;;;;;8.45;53.35;99357.83;1955653;99;26033;-83
2022/12/09 15:10:36;;;;;;;39.15;22.90;;;;;;;8.48;53.35;99357.89;1961343;99;25348;-77
2022/12/09 15:14:31;;;;;;;39.98;21.97;;;;;;;8.49;53.35;99347.50;1975094;98;25750;-77
2022/12/09 15:18:36;;;;;;;37.13;21.93;;;;;;;8.50;53.38;99346.68;1975755;98;26433;-79
2022/12/09 15:22:07;;;;;;;38.90;22.98;;;;;;;8.51;53.41;99346.25;1991224;98;25815;-80
2022/12/09 15:25:38;;;;;;;38.05;22.15;;;;;;;8.50;53.42;99339.28;1973129;98;26721;-80
2022/12/09 15:29:05;;;;;;;38.55;21.30;;;;;;;8.51;53.48;99342.35;1988846;98;25777;-81
2022/12/09 15:32:44;;;;;;;41.70;23.25;;;;;;;8.51;53.51;99344.95;1976468;98;25878;-81
2022/12/09 15:36:44;;;;;;;36.17;23.50;;;;;;;8.53;53.52;99347.55;1978414;97;25864;-79
2022/12/09 15:40:18;;;;;;;35.17;22.02;;;;;;;8.53;53.55;99339.77;2096010;90;25811;-86
2022/12/09 15:43:48;;;;;;;35.73;21.62;;;;;;;8.53;53.59;99339.77;2126492;91;26006;-82
2022/12/09 15:47:47;;;;;;;31.50;21.93;;;;;;;8.54;53.63;99344.09;2109006;91;25826;-84
2022/12/09 15:51:22;;;;;;;32.08;21.73;;;;;;;8.55;53.66;99344.56;2076569;93;26889;-83
2022/12/09 15:55:05;;;;;;;38.42;22.98;;;;;;;8.55;53.70;99329.85;2077020;92;25802;-83
2022/12/09 15:58:46;;;;;;;43.05;22.25;;;;;;;8.57;53.72;99325.53;2074062;92;26543;-83
2022/12/09 16:02:23;;;;;;;35.85;21.27;;;;;;;8.58;53.77;99323.84;2056674;91;25917;-83
2022/12/09 16:06:06;;;;;;;34.05;23.25;;;;;;;8.59;53.78;99320.38;2063532;93;25735;-87
2022/12/09 16:13:16;;;;;;;35.13;20.65;;;;;;;8.60;53.83;99316.48;2064545;93;26109;-84
2022/12/09 16:17:02;;;;;;;35.60;21.42;;;;;;;8.60;53.84;99317.78;2093882;92;25776;-84
2022/12/09 16:20:36;;;;;;;37.25;22.40;;;;;;;8.61;53.89;99300.50;2105275;91;25770;-85
2022/12/09 16:24:13;;;;;;;34.18;21.12;;;;;;;8.61;53.89;99297.47;2095379;92;25809;-85
2022/12/09 16:28:02;;;;;;;39.83;23.30;;;;;;;8.61;53.93;99290.98;2081224;92;25761;-84
2022/12/09 16:31:27;;;;;;;37.90;21.27;;;;;;;8.59;53.97;99296.56;2058874;93;25812;-86
2022/12/09 16:35:21;;;;;;;36.30;21.93;;;;;;;8.61;53.97;99299.20;2067361;93;26505;-85
2022/12/09 16:39:11;;;;;;;32.20;20.50;;;;;;;8.61;54.01;99299.20;2068815;93;26082;-84
2022/12/09 16:42:39;;;;;;;36.33;21.90;;;;;;;8.60;54.01;99306.52;2105123;90;25992;-86
2022/12/09 16:46:19;;;;;;;36.40;22.77;;;;;;;8.62;54.04;99305.70;2176565;89;25876;-84
2022/12/09 16:49:51;;;;;;;38.10;22.00;;;;;;;8.61;54.07;99298.77;2155313;89;25259;-84
2022/12/09 16:53:41;;;;;;;33.23;21.87;;;;;;;8.62;54.08;99299.64;2175983;89;25789;-82
2022/12/09 16:57:05;;;;;;;32.85;21.93;;;;;;;8.62;54.10;99300.94;2135058;90;26170;-86
2022/12/09 17:00:34;;;;;;;39.33;23.83;;;;;;;8.63;54.09;99300.08;2145911;89;25773;-83
2022/12/09 17:04:13;;;;;;;36.98;23.47;;;;;;;8.63;54.09;99290.98;2157810;89;25701;-83
2022/12/09 17:07:47;;;;;;;39.13;24.47;;;;;;;8.63;54.08;99294.45;2143629;90;25946;-83
2022/12/09 17:11:20;;;;;;;42.95;24.65;;;;;;;8.64;54.13;99287.52;2185381;89;25480;-80
2022/12/09 17:14:52;;;;;;;39.10;24.90;;;;;;;8.63;54.14;99289.69;2196240;87;26296;-84
2022/12/09 17:18:20;;;;;;;37.17;24.02;;;;;;;8.63;54.16;99307.87;2202071;88;25744;-85
2022/12/09 17:21:53;;;;;;;36.58;24.65;;;;;;;8.62;54.18;99297.91;2201950;88;25796;-86
2022/12/09 17:25:15;;;;;;;38.65;25.20;;;;;;;8.62;54.18;99296.61;2199328;88;25699;-84
2022/12/09 17:28:52;;;;;;;40.43;25.17;;;;;;;8.62;54.21;99303.54;2146804;89;25996;-84
2022/12/09 17:32:22;;;;;;;43.78;26.68;;;;;;;8.61;54.20;99304.39;2090845;92;25895;-83
2022/12/09 17:35:50;;;;;;;40.52;26.17;;;;;;;8.60;54.23;99295.70;2120399;91;25828;-83
2022/12/09 17:39:22;;;;;;;40.20;25.77;;;;;;;8.60;54.24;99298.73;2085596;92;26131;-84
2022/12/09 17:42:51;;;;;;;40.03;25.40;;;;;;;8.59;54.27;99297.86;2112222;91;25723;-84
2022/12/09 17:46:39;;;;;;;;;;;;;;;8.58;54.28;99313.02;2098386;92;26127;-83
2022/12/09 17:49:59;;;;;;;42.75;26.02;;;;;;;8.57;54.31;99307.78;2056767;93;25869;-82
2022/12/09 17:53:27;;;;;;;42.15;26.42;;;;;;;8.55;54.32;99317.30;2049476;93;26020;-83
2022/12/09 17:56:50;;;;;;;42.80;26.48;;;;;;;8.53;54.33;99307.29;2062043;93;25816;-84
2022/12/09 18:00:17;;;;;;;42.25;26.15;;;;;;;8.51;54.35;99308.59;2037138;93;26415;-83
2022/12/09 18:03:46;;;;;;;;;;;;;;;8.49;54.37;99304.64;2088958;92;25379;-85
2022/12/09 18:07:28;;;;;;;48.23;27.62;;;;;;;8.50;54.40;99308.11;2139543;91;25896;-83
2022/12/09 18:10:57;;;;;;;44.00;26.73;;;;;;;8.46;54.43;99309.80;2135675;90;25352;-84
2022/12/09 18:14:24;;;;;;;43.80;26.75;;;;;;;8.47;54.42;99303.77;2108443;91;25771;-84
2022/12/09 18:17:56;;;;;;;40.25;27.15;;;;;;;8.45;54.46;99304.16;2104108;92;25952;-83
2022/12/09 18:21:40;;;;;;;39.53;26.05;;;;;;;8.45;54.47;99301.56;2086996;92;25847;-83
2022/12/09 18:25:03;;;;;;;41.20;26.35;;;;;;;8.44;54.49;99302.42;2102839;92;25921;-83
2022/12/09 18:28:26;;;;;;;42.70;25.52;;;;;;;8.43;54.50;99308.45;2165625;89;25811;-84
2022/12/09 18:32:01;;;;;;;44.18;27.37;;;;;;;8.42;54.51;99300.22;2147642;89;25743;-86
2022/12/09 18:35:37;;;;;;;41.77;26.15;;;;;;;8.42;54.50;99299.34;2140829;88;25874;-83